Time;durP1;ratioP1;P1;durP2;ratioP2;P2;SDS_P1;SDS_P2;PMS_P1;PMS_P2;Temp;Humidity;BMP_temperature;BMP_pressure;BME280_temperature;BME280_humidity;BME280_pressure;Samples;Min_cycle;Max_cycle;Signal;HPM_P1;HPM_P2
2021/11/11 00:00:37;;;;;;;32.83;21.83;;;;;;;8.40;63.43;99316.50;5092215;28;20020;-52
2021/11/11 00:03:03;;;;;;;32.63;22.65;;;;;;;8.27;62.83;99330.13;5092116;28;20020;-51
2021/11/11 00:05:29;;;;;;;34.08;24.75;;;;;;;7.79;63.67;99334.50;5092107;28;20047;-53
2021/11/11 00:07:56;;;;;;;36.25;23.23;;;;;;;7.26;65.14;99328.00;5092026;28;20031;-52
2021/11/11 00:10:23;;;;;;;46.05;29.60;;;;;;;7.28;66.09;99311.19;5092104;28;20016;-53
2021/11/11 00:12:49;;;;;;;38.55;24.70;;;;;;;7.52;65.51;99318.19;5092038;28;20039;-52
2021/11/11 00:15:16;;;;;;;38.53;26.65;;;;;;;7.60;65.03;99328.63;5091985;28;20027;-52
2021/11/11 00:17:43;;;;;;;43.42;24.52;;;;;;;7.70;65.54;99318.00;5091926;28;20020;-52
2021/11/11 00:20:11;;;;;;;35.88;24.67;;;;;;;7.72;65.04;99313.44;5091945;28;20026;-52
2021/11/11 00:22:38;;;;;;;36.63;24.20;;;;;;;7.57;65.58;99317.72;5091646;28;20039;-53
2021/11/11 00:25:05;;;;;;;37.35;25.00;;;;;;;7.53;65.08;99303.38;5091837;28;20020;-52
2021/11/11 00:27:31;;;;;;;36.22;24.95;;;;;;;7.64;65.47;99295.16;5091880;28;20397;-52
2021/11/11 00:29:57;;;;;;;35.20;23.35;;;;;;;7.66;64.89;99282.75;5091802;28;20020;-52
2021/11/11 00:32:24;;;;;;;42.38;25.35;;;;;;;7.70;65.16;99297.13;5091846;28;20036;-52
2021/11/11 00:34:52;;;;;;;42.47;26.45;;;;;;;7.78;65.77;99302.31;5091812;28;20020;-53
2021/11/11 00:37:22;;;;;;;40.28;24.83;;;;;;;7.84;65.07;99295.63;5091814;28;20067;-52
2021/11/11 00:39:49;;;;;;;38.50;24.95;;;;;;;7.87;64.70;99300.53;5091758;28;20107;-53
2021/11/11 00:42:17;;;;;;;148.75;125.80;;;;;;;7.83;64.90;99301.00;5091629;28;20016;-52
2021/11/11 00:44:43;;;;;;;109.90;85.78;;;;;;;7.79;65.05;99298.75;5091676;28;20039;-52
2021/11/11 00:47:09;;;;;;;128.95;108.18;;;;;;;7.82;65.30;99286.31;5091681;28;20058;-52
2021/11/11 00:49:36;;;;;;;103.15;80.53;;;;;;;7.93;64.55;99284.16;5090317;28;20024;-53
2021/11/11 00:52:04;;;;;;;47.95;33.95;;;;;;;7.96;64.79;99298.69;5091660;28;20099;-52
2021/11/11 00:54:31;;;;;;;36.90;25.38;;;;;;;7.93;64.34;99320.75;5091645;28;20034;-52
2021/11/11 00:56:57;;;;;;;43.85;27.00;;;;;;;7.92;65.06;99341.81;5091547;28;20016;-52
2021/11/11 00:59:22;;;;;;;40.47;27.23;;;;;;;7.85;64.45;99348.69;5091546;28;20017;-52
2021/11/11 01:01:48;;;;;;;45.90;25.90;;;;;;;7.83;65.16;99350.66;5091469;28;20021;-52
2021/11/11 01:04:14;;;;;;;46.67;27.08;;;;;;;7.85;65.06;99346.91;5093346;28;20024;-53
2021/11/11 01:06:39;;;;;;;40.58;26.35;;;;;;;7.89;64.78;99350.00;5095423;28;20473;-52
2021/11/11 01:09:05;;;;;;;35.63;24.65;;;;;;;7.88;65.19;99343.13;5095431;28;20024;-53
2021/11/11 01:11:31;;;;;;;37.50;24.27;;;;;;;8.02;65.45;99347.69;5094029;28;20536;-53
2021/11/11 01:13:57;;;;;;;34.60;22.10;;;;;;;8.30;64.56;99376.03;5095271;28;20110;-53
2021/11/11 01:16:23;;;;;;;41.33;24.10;;;;;;;8.31;63.62;99386.34;5095328;28;20243;-52
2021/11/11 01:18:49;;;;;;;38.08;24.13;;;;;;;8.21;63.77;99375.25;5093904;28;20122;-52
2021/11/11 01:21:15;;;;;;;35.53;23.90;;;;;;;8.09;63.93;99366.94;5095078;28;20052;-52
2021/11/11 01:23:41;;;;;;;38.88;23.38;;;;;;;7.97;64.22;99370.91;5094901;28;20051;-53
2021/11/11 01:26:07;;;;;;;36.47;23.80;;;;;;;8.09;64.65;99374.78;5093782;28;20035;-53
2021/11/11 01:28:35;;;;;;;37.58;23.75;;;;;;;8.09;64.11;99384.41;5095005;28;20028;-52
2021/11/11 01:31:00;;;;;;;37.92;22.92;;;;;;;8.07;64.06;99386.38;5094924;28;20107;-52
2021/11/11 01:33:26;;;;;;;38.53;23.10;;;;;;;7.99;63.84;99376.78;5094969;28;20099;-52
2021/11/11 01:35:52;;;;;;;37.15;24.80;;;;;;;7.96;64.29;99395.41;5094847;28;20104;-52
2021/11/11 01:38:19;;;;;;;38.55;24.98;;;;;;;7.96;64.24;99385.75;5093486;28;20016;-53
2021/11/11 01:40:45;;;;;;;39.53;24.13;;;;;;;7.98;64.15;99390.81;5095081;28;20032;-53
2021/11/11 01:43:11;;;;;;;43.47;24.30;;;;;;;8.02;64.62;99396.53;5093374;28;20028;-53
2021/11/11 01:45:42;;;;;;;38.42;24.92;;;;;;;8.14;64.32;99410.88;5094670;28;20031;-52
2021/11/11 01:48:12;;;;;;;37.33;23.75;;;;;;;8.33;64.22;99409.69;5094816;28;20107;-53
2021/11/11 01:50:40;;;;;;;39.60;28.02;;;;;;;8.48;63.14;99415.91;5094623;28;20058;-53
2021/11/11 01:53:09;;;;;;;39.80;28.25;;;;;;;8.41;63.70;99417.56;5094554;28;20024;-53
2021/11/11 01:55:36;;;;;;;35.95;26.52;;;;;;;8.46;62.97;99420.47;5094513;28;20053;-52
2021/11/11 01:58:02;;;;;;;39.30;27.02;;;;;;;8.34;63.60;99409.53;5094493;28;20493;-52
2021/11/11 02:00:35;;;;;;;50.58;35.17;;;;;;;8.36;63.42;99383.22;5094429;28;20054;-52
2021/11/11 02:03:04;;;;;;;45.45;26.75;;;;;;;8.44;63.57;99374.56;5094389;28;20024;-52
2021/11/11 02:05:31;;;;;;;44.95;25.80;;;;;;;8.49;62.69;99369.63;5094340;28;20157;-52
2021/11/11 02:07:57;;;;;;;39.33;27.08;;;;;;;8.48;63.09;99381.88;5094299;28;20381;-52
2021/11/11 02:10:25;;;;;;;35.85;24.30;;;;;;;8.42;63.16;99377.34;5094240;28;20048;-53
2021/11/11 02:12:51;;;;;;;43.00;25.92;;;;;;;8.36;62.79;99378.78;5094103;28;20027;-52
2021/11/11 02:15:18;;;;;;;41.58;25.42;;;;;;;8.27;63.22;99378.97;5092468;28;20025;-52
2021/11/11 02:17:47;;;;;;;40.70;26.20;;;;;;;8.19;63.74;99372.81;5094065;28;20424;-52
2021/11/11 02:20:17;;;;;;;41.20;25.48;;;;;;;8.20;63.81;99363.16;5094045;28;20174;-52
2021/11/11 02:22:43;;;;;;;47.38;25.38;;;;;;;8.08;63.45;99361.88;5093704;28;20044;-52
2021/11/11 02:25:15;;;;;;;46.13;26.98;;;;;;;7.80;64.41;99378.75;5093999;28;20016;-52
2021/11/11 02:27:41;;;;;;;34.22;23.25;;;;;;;7.82;64.71;99367.31;5093969;28;20032;-53
2021/11/11 02:30:10;;;;;;;37.78;24.63;;;;;;;7.86;64.00;99351.13;5093828;28;20031;-53
2021/11/11 02:32:37;;;;;;;37.03;23.73;;;;;;;7.72;63.87;99336.13;5093785;28;20523;-53
2021/11/11 02:35:09;;;;;;;36.42;23.98;;;;;;;7.70;65.04;99367.66;5093767;28;20166;-52
2021/11/11 02:37:36;;;;;;;38.30;26.90;;;;;;;7.67;64.56;99368.00;5093714;28;20039;-53
2021/11/11 02:40:08;;;;;;;42.30;30.75;;;;;;;7.62;64.69;99365.03;5093654;28;20030;-52
2021/11/11 02:42:35;;;;;;;45.28;27.27;;;;;;;7.46;65.57;99375.50;5093527;28;20431;-53
2021/11/11 02:45:05;;;;;;;43.97;27.58;;;;;;;7.48;65.41;99370.94;5093536;28;20103;-52
2021/11/11 02:47:32;;;;;;;40.50;26.25;;;;;;;7.66;66.16;99365.53;5093439;28;20032;-53
2021/11/11 02:49:58;;;;;;;38.25;27.50;;;;;;;7.94;65.78;99358.16;5093493;28;20047;-52
2021/11/11 02:52:24;;;;;;;40.10;26.17;;;;;;;7.95;64.78;99350.16;5093420;28;20064;-52
2021/11/11 02:54:50;;;;;;;39.58;25.60;;;;;;;8.32;64.89;99338.25;5093376;28;20367;-52
2021/11/11 02:57:34;;;;;;;42.63;27.02;;;;;;;8.38;63.73;99329.75;5093278;28;20099;-53
2021/11/11 03:00:09;;;;;;;42.05;27.33;;;;;;;8.17;63.81;99332.13;5093304;28;20026;-53
2021/11/11 03:02:38;;;;;;;51.10;35.97;;;;;;;7.93;64.43;99341.66;5093176;28;20024;-52
2021/11/11 03:05:06;;;;;;;43.25;26.98;;;;;;;8.08;65.07;99354.84;5091859;28;20024;-52
2021/11/11 03:07:32;;;;;;;41.15;25.45;;;;;;;8.57;64.59;99356.50;5093123;28;20074;-52
2021/11/11 03:09:58;;;;;;;43.80;26.73;;;;;;;9.15;63.47;99347.31;5093148;28;20051;-53
2021/11/11 03:12:24;;;;;;;36.55;24.25;;;;;;;9.46;62.23;99343.84;5092972;28;20044;-53
2021/11/11 03:14:52;;;;;;;47.30;27.95;;;;;;;9.62;61.25;99342.88;5092991;28;20447;-53
2021/11/11 03:17:18;;;;;;;45.40;26.83;;;;;;;9.87;61.73;99348.69;5092952;28;20024;-53
2021/11/11 03:19:44;;;;;;;41.28;27.67;;;;;;;10.13;60.44;99356.13;5092954;28;20440;-53
2021/11/11 03:22:18;;;;;;;43.78;30.90;;;;;;;9.99;59.50;99359.56;5092572;28;20036;-52
2021/11/11 03:24:44;;;;;;;45.20;30.15;;;;;;;9.65;60.20;99342.50;5092878;28;20024;-52
2021/11/11 03:27:11;;;;;;;47.05;28.77;;;;;;;9.38;60.78;99342.09;5092350;28;20020;-53
2021/11/11 03:29:37;;;;;;;47.17;32.75;;;;;;;9.16;61.34;99337.69;5092772;28;20052;-53
2021/11/11 03:32:04;;;;;;;51.58;34.80;;;;;;;8.98;61.55;99349.25;5092685;28;20055;-53
2021/11/11 03:34:30;;;;;;;48.63;30.35;;;;;;;8.65;62.18;99346.00;5091306;28;20406;-52
2021/11/11 03:36:57;;;;;;;50.00;32.38;;;;;;;8.57;62.94;99341.63;5092561;28;20020;-53
2021/11/11 03:39:25;;;;;;;44.88;28.27;;;;;;;8.69;63.66;99342.06;5092574;28;20572;-53
2021/11/11 03:41:54;;;;;;;44.95;28.67;;;;;;;8.91;62.50;99335.22;5092391;28;20569;-53
2021/11/11 03:44:21;;;;;;;47.55;30.80;;;;;;;8.93;62.15;99342.91;5092501;28;20132;-53
2021/11/11 03:46:50;;;;;;;51.47;31.63;;;;;;;8.82;62.23;99348.53;5092441;28;20019;-53
2021/11/11 03:49:17;;;;;;;47.50;29.95;;;;;;;8.93;62.53;99348.13;5091090;28;20024;-52
2021/11/11 03:51:44;;;;;;;49.33;30.85;;;;;;;8.67;62.22;99344.03;5092324;28;20016;-52
2021/11/11 03:54:13;;;;;;;49.80;32.25;;;;;;;8.20;63.40;99342.25;5092328;28;20494;-53
2021/11/11 03:56:41;;;;;;;49.70;30.55;;;;;;;8.19;64.42;99346.66;5092232;28;20024;-52
2021/11/11 03:59:08;;;;;;;55.10;30.98;;;;;;;8.43;64.29;99344.97;5092518;28;20367;-53
2021/11/11 04:01:33;;;;;;;47.78;32.08;;;;;;;8.76;62.99;99355.28;5092107;28;20480;-53
2021/11/11 04:03:59;;;;;;;48.63;30.63;;;;;;;8.66;63.07;99350.25;5092170;28;20062;-53
2021/11/11 04:06:25;;;;;;;51.88;34.70;;;;;;;8.63;63.22;99347.16;5092148;28;20020;-52
2021/11/11 04:08:51;;;;;;;54.33;35.47;;;;;;;8.45;63.18;99350.84;5090819;28;20028;-52
2021/11/11 04:11:17;;;;;;;43.78;27.85;;;;;;;8.34;63.16;99361.63;5092025;28;20020;-52
2021/11/11 04:13:43;;;;;;;44.95;28.23;;;;;;;8.16;63.33;99367.09;5091987;28;20035;-53
2021/11/11 04:16:09;;;;;;;40.08;26.70;;;;;;;7.89;64.02;99363.88;5090685;28;20016;-53
2021/11/11 04:18:35;;;;;;;38.05;25.75;;;;;;;7.70;64.30;99346.75;5090674;28;20024;-53
2021/11/11 04:21:01;;;;;;;42.05;26.00;;;;;;;7.56;65.11;99343.00;5091889;28;20024;-53
2021/11/11 04:23:27;;;;;;;38.53;25.83;;;;;;;7.42;65.52;99330.59;5091672;28;20496;-53
2021/11/11 04:28:31;;;;;;;39.97;25.85;;;;;;;7.33;66.15;99329.00;5091928;28;20436;-52
2021/11/11 04:31:00;;;;;;;37.30;24.90;;;;;;;7.26;66.08;99315.75;5092142;28;20392;-53
2021/11/11 04:33:26;;;;;;;42.70;25.27;;;;;;;7.18;66.55;99319.22;5090448;28;20789;-53
2021/11/11 04:35:59;;;;;;;41.15;24.77;;;;;;;7.09;66.63;99321.97;5091827;28;20103;-53
2021/11/11 04:41:22;;;;;;;54.97;31.90;;;;;;;7.14;67.16;99330.13;5095942;28;20032;-52
2021/11/11 05:00:22;;;;;;;63.30;32.58;;;;;;;7.18;68.23;99305.31;5095660;28;20059;-52
2021/11/11 05:03:34;;;;;;;42.30;26.33;;;;;;;7.22;67.64;99319.69;5095517;28;20105;-52
2021/11/11 05:05:35;;;;;;;36.83;21.02;;;;;;;7.17;67.60;99303.69;5087795;28;20529;-53
2021/11/11 05:08:01;;;;;;;33.95;22.30;;;;;;;7.02;67.53;99306.13;5095508;28;20546;-52
2021/11/11 05:10:26;;;;;;;39.65;25.95;;;;;;;6.86;67.89;99304.34;5095321;28;20027;-52
2021/11/11 05:12:52;;;;;;;42.35;26.63;;;;;;;6.72;68.26;99316.22;5095414;28;20388;-53
2021/11/11 05:15:18;;;;;;;35.10;21.65;;;;;;;6.70;69.68;99296.47;5093958;28;20024;-53
2021/11/11 05:17:45;;;;;;;41.78;25.52;;;;;;;6.95;70.45;99298.13;5095236;28;20020;-53
2021/11/11 05:20:16;;;;;;;41.15;23.73;;;;;;;7.31;68.45;99291.78;5095114;28;20541;-52
2021/11/11 05:22:43;;;;;;;38.85;24.13;;;;;;;7.18;67.61;99287.88;5094842;28;20040;-52
2021/11/11 05:25:10;;;;;;;46.55;27.98;;;;;;;7.01;68.09;99294.06;5095124;28;20032;-52
2021/11/11 05:27:36;;;;;;;40.80;23.00;;;;;;;7.11;69.27;99306.97;5095085;28;20497;-53
2021/11/11 05:30:08;;;;;;;39.58;26.90;;;;;;;7.29;68.96;99307.63;5095037;28;20392;-52
2021/11/11 05:32:34;;;;;;;41.50;27.70;;;;;;;7.57;67.67;99312.50;5093763;28;20101;-53
2021/11/11 05:35:04;;;;;;;36.20;24.48;;;;;;;7.28;67.13;99311.19;5093648;28;20028;-52
2021/11/11 05:37:30;;;;;;;39.40;23.40;;;;;;;7.20;68.58;99316.41;5093654;28;20055;-52
2021/11/11 05:39:56;;;;;;;33.28;21.90;;;;;;;7.15;68.34;99316.09;5093519;28;20107;-52
2021/11/11 05:42:22;;;;;;;33.13;23.50;;;;;;;7.03;68.02;99327.84;5094723;28;20103;-52
2021/11/11 05:44:48;;;;;;;34.13;24.00;;;;;;;6.86;68.91;99340.03;5094757;28;20027;-52
2021/11/11 05:47:14;;;;;;;39.08;25.33;;;;;;;6.70;69.36;99340.81;5093388;28;20028;-52
2021/11/11 05:49:40;;;;;;;34.60;21.98;;;;;;;6.58;69.64;99330.69;5093922;28;20436;-52
2021/11/11 05:52:06;;;;;;;34.65;24.45;;;;;;;6.57;69.01;99334.25;5094619;28;20024;-53
2021/11/11 05:54:32;;;;;;;43.88;25.40;;;;;;;6.52;69.56;99344.34;5094587;28;20057;-52
2021/11/11 05:56:59;;;;;;;35.00;22.42;;;;;;;6.48;69.91;99342.19;5094553;28;20020;-52
2021/11/11 05:59:25;;;;;;;39.67;23.88;;;;;;;6.58;69.90;99343.72;5093176;28;20044;-52
2021/11/11 06:01:51;;;;;;;39.28;24.80;;;;;;;6.77;70.12;99344.41;5094356;28;20370;-52
2021/11/11 06:04:17;;;;;;;34.40;19.65;;;;;;;6.94;70.09;99356.53;5094398;28;20024;-52
2021/11/11 06:06:43;;;;;;;56.42;27.02;;;;;;;7.22;69.20;99365.84;5094330;28;20072;-52
2021/11/11 06:09:08;;;;;;;49.60;27.05;;;;;;;7.20;67.83;99360.78;5094251;28;20458;-53
2021/11/11 06:11:34;;;;;;;48.58;27.85;;;;;;;7.12;68.23;99352.94;5094226;28;20035;-53
2021/11/11 06:14:00;;;;;;;49.55;26.83;;;;;;;7.13;68.38;99355.41;5094230;28;20028;-52
2021/11/11 06:16:26;;;;;;;49.80;28.23;;;;;;;7.24;68.01;99358.69;5094000;28;20508;-52
2021/11/11 06:18:52;;;;;;;44.58;26.77;;;;;;;7.29;67.74;99367.66;5094157;28;20099;-52
2021/11/11 06:21:22;;;;;;;127.85;30.13;;;;;;;7.29;67.62;99354.59;5093971;28;20165;-53
2021/11/11 06:23:49;;;;;;;57.33;29.35;;;;;;;7.22;67.77;99361.44;5093881;28;20050;-52
2021/11/11 06:26:17;;;;;;;52.63;29.02;;;;;;;7.20;67.75;99350.34;5093864;28;20409;-53
2021/11/11 06:28:43;;;;;;;143.75;31.20;;;;;;;7.12;68.11;99359.00;5093935;28;20103;-52
2021/11/11 06:31:09;;;;;;;83.75;32.95;;;;;;;6.96;68.36;99365.03;5092563;28;20111;-53
2021/11/11 06:33:34;;;;;;;92.60;30.40;;;;;;;6.97;68.68;99376.25;5093840;28;20035;-52
2021/11/11 06:36:00;;;;;;;159.30;30.65;;;;;;;6.92;67.95;99374.16;5093787;28;20430;-52
2021/11/11 06:38:26;;;;;;;125.03;30.48;;;;;;;6.78;68.51;99372.13;5093724;28;20031;-52
2021/11/11 06:40:52;;;;;;;50.47;27.88;;;;;;;6.83;69.50;99377.69;5093641;28;20405;-52
2021/11/11 06:43:19;;;;;;;48.40;28.63;;;;;;;6.98;68.80;99399.59;5093512;28;20056;-52
2021/11/11 06:45:46;;;;;;;60.72;31.60;;;;;;;6.94;68.66;99390.47;5093539;28;20023;-52
2021/11/11 06:48:13;;;;;;;49.30;30.27;;;;;;;6.98;69.07;99388.31;5093528;28;20545;-53
2021/11/11 06:50:43;;;;;;;56.78;31.83;;;;;;;7.05;69.43;99389.34;5093435;28;20027;-52
2021/11/11 06:53:11;;;;;;;52.88;29.67;;;;;;;7.08;69.08;99407.25;5093441;28;20066;-52
2021/11/11 06:55:39;;;;;;;72.32;30.48;;;;;;;7.22;70.16;99402.41;5093379;28;20052;-53
2021/11/11 06:58:06;;;;;;;55.90;32.13;;;;;;;7.56;68.69;99408.31;5093330;28;20064;-53
2021/11/11 07:00:32;;;;;;;52.03;29.02;;;;;;;7.72;68.29;99404.88;5092924;28;20103;-52
2021/11/11 07:02:58;;;;;;;59.40;32.83;;;;;;;7.71;67.45;99420.75;5091183;28;20112;-52
2021/11/11 07:05:23;;;;;;;56.38;29.63;;;;;;;7.60;67.37;99419.25;5093137;28;20035;-52
2021/11/11 07:07:49;;;;;;;50.10;30.10;;;;;;;7.53;67.97;99421.72;5091875;28;20111;-52
2021/11/11 07:10:16;;;;;;;43.97;27.05;;;;;;;7.58;67.80;99413.38;5093103;28;20478;-52
2021/11/11 07:12:42;;;;;;;45.05;27.30;;;;;;;7.69;67.83;99417.47;5093036;28;20482;-52
2021/11/11 07:15:10;;;;;;;44.13;28.35;;;;;;;7.98;67.97;99427.41;5093011;28;20021;-53
2021/11/11 07:17:37;;;;;;;67.97;53.17;;;;;;;8.35;67.38;99436.47;5092954;28;20020;-53
2021/11/11 07:20:06;;;;;;;69.63;41.72;;;;;;;8.79;65.58;99444.75;5092903;28;20050;-53
2021/11/11 07:22:32;;;;;;;71.13;37.15;;;;;;;8.80;64.36;99456.00;5092604;28;20072;-53
2021/11/11 07:24:58;;;;;;;52.83;30.90;;;;;;;8.55;64.94;99460.50;5092884;28;20448;-52
2021/11/11 07:27:24;;;;;;;107.20;37.28;;;;;;;8.24;64.65;99465.63;5091472;28;20453;-52
2021/11/11 07:29:50;;;;;;;43.80;29.55;;;;;;;7.98;65.90;99472.66;5092829;28;20028;-52
2021/11/11 07:32:16;;;;;;;57.55;30.65;;;;;;;7.90;65.99;99479.69;5092646;28;20028;-52
2021/11/11 07:34:43;;;;;;;111.10;73.13;;;;;;;7.71;66.30;99473.00;5091416;28;20081;-52
2021/11/11 07:37:09;;;;;;;99.50;75.70;;;;;;;7.80;66.92;99483.25;5092627;28;20012;-52
2021/11/11 07:39:35;;;;;;;108.03;89.13;;;;;;;7.95;66.35;99477.41;5092612;28;20024;-53
2021/11/11 07:42:01;;;;;;;86.25;73.15;;;;;;;7.96;67.05;99471.19;5092446;28;20142;-53
2021/11/11 07:44:27;;;;;;;37.70;25.92;;;;;;;8.11;66.35;99463.50;5092558;28;20035;-52
2021/11/11 07:46:53;;;;;;;45.65;30.80;;;;;;;8.14;65.58;99463.19;5091099;28;20024;-52
2021/11/11 07:49:19;;;;;;;47.05;30.88;;;;;;;8.09;65.18;99473.28;5092401;28;20054;-53
2021/11/11 07:51:45;;;;;;;62.75;46.63;;;;;;;7.96;66.14;99473.81;5092372;28;20103;-53
2021/11/11 07:54:11;;;;;;;41.90;26.23;;;;;;;7.89;65.80;99475.47;5090940;28;20165;-52
2021/11/11 07:56:39;;;;;;;67.55;32.15;;;;;;;7.75;66.68;99477.72;5092291;28;20501;-52
2021/11/11 07:59:05;;;;;;;50.13;33.85;;;;;;;7.71;66.93;99473.81;5092250;28;20048;-53
2021/11/11 08:01:32;;;;;;;49.22;30.08;;;;;;;7.77;66.98;99481.00;5092195;28;20048;-52
2021/11/11 08:03:59;;;;;;;53.55;26.70;;;;;;;7.86;66.62;99491.44;5092211;28;20081;-52
2021/11/11 08:06:25;;;;;;;45.05;28.05;;;;;;;7.84;65.80;99478.53;5092178;28;20032;-53
2021/11/11 08:08:51;;;;;;;46.65;31.95;;;;;;;7.79;67.00;99488.69;5092156;28;20076;-53
2021/11/11 08:11:17;;;;;;;45.70;26.98;;;;;;;7.97;67.05;99489.31;5092142;28;20020;-52
2021/11/11 08:13:43;;;;;;;41.92;27.98;;;;;;;8.08;66.19;99488.16;5091810;28;20672;-52
2021/11/11 08:16:09;;;;;;;58.25;35.70;;;;;;;8.05;65.75;99492.91;5092033;28;20020;-52
2021/11/11 08:18:35;;;;;;;563.70;286.02;;;;;;;8.17;66.66;99500.28;5092069;28;20401;-53
2021/11/11 08:21:01;;;;;;;603.33;343.73;;;;;;;8.22;66.01;99491.94;5092096;28;20481;-53
2021/11/11 08:23:28;;;;;;;440.38;349.58;;;;;;;8.17;65.74;99489.00;5090380;28;20062;-53
2021/11/11 08:25:54;;;;;;;842.05;551.03;;;;;;;8.13;66.13;99478.06;5090587;28;20036;-52
2021/11/11 08:28:21;;;;;;;115.18;70.05;;;;;;;8.12;65.43;99476.41;5091911;28;20021;-53
2021/11/11 08:30:48;;;;;;;95.97;59.25;;;;;;;8.12;65.90;99471.19;5091872;28;20047;-52
2021/11/11 08:33:14;;;;;;;64.18;38.95;;;;;;;8.22;65.72;99470.19;5090511;28;20524;-53
2021/11/11 08:35:41;;;;;;;59.40;34.30;;;;;;;8.29;65.46;99471.16;5090563;28;20036;-53
2021/11/11 08:38:07;;;;;;;58.90;31.65;;;;;;;8.28;64.96;99475.56;5091817;28;20489;-53
2021/11/11 08:40:33;;;;;;;57.08;34.15;;;;;;;8.18;64.94;99480.97;5091740;28;20024;-53
2021/11/11 08:42:59;;;;;;;60.05;37.85;;;;;;;8.15;65.57;99481.31;5091695;28;20480;-52
2021/11/11 08:45:28;;;;;;;58.55;36.47;;;;;;;8.19;65.93;99477.38;5091706;28;20112;-52
2021/11/11 08:47:55;;;;;;;56.72;32.78;;;;;;;8.29;65.65;99481.63;5091665;28;20020;-52
2021/11/11 08:50:23;;;;;;;52.85;33.35;;;;;;;8.34;65.46;99477.53;5091601;28;20044;-53
2021/11/11 08:52:54;;;;;;;53.75;33.08;;;;;;;8.42;65.62;99470.69;5090285;28;20025;-53
2021/11/11 08:55:23;;;;;;;50.80;29.90;;;;;;;8.48;65.23;99470.03;5090330;28;20040;-52
2021/11/11 08:57:50;;;;;;;72.22;44.60;;;;;;;8.41;64.58;99454.19;5091637;28;20024;-52
2021/11/11 09:00:23;;;;;;;56.20;33.42;;;;;;;8.32;64.95;99448.09;5090284;28;20042;-53
2021/11/11 09:02:52;;;;;;;55.78;33.72;;;;;;;8.36;64.66;99453.81;5091529;28;20082;-53
2021/11/11 09:05:19;;;;;;;48.30;31.13;;;;;;;8.37;64.96;99463.28;5091514;28;20020;-52
2021/11/11 09:07:45;;;;;;;47.78;30.85;;;;;;;8.36;64.85;99459.06;5091531;28;20213;-52
2021/11/11 09:10:18;;;;;;;54.70;33.88;;;;;;;8.46;64.99;99459.72;5091451;28;20024;-52
2021/11/11 09:12:45;;;;;;;56.13;32.53;;;;;;;8.54;64.62;99457.06;5091484;28;20035;-52
2021/11/11 09:15:13;;;;;;;54.55;32.28;;;;;;;8.75;64.91;99453.91;5091466;28;20099;-52
2021/11/11 09:17:40;;;;;;;59.45;37.03;;;;;;;8.94;63.81;99459.72;5091482;28;20016;-53
2021/11/11 09:20:09;;;;;;;55.40;34.10;;;;;;;8.93;63.06;99455.47;5091376;28;20516;-53
2021/11/11 09:22:35;;;;;;;49.42;33.45;;;;;;;8.98;63.02;99461.81;5090991;28;20076;-53
2021/11/11 09:25:03;;;;;;;58.25;38.10;;;;;;;9.20;63.57;99464.66;5092656;28;20051;-53
2021/11/11 09:27:29;;;;;;;57.67;35.95;;;;;;;9.38;62.78;99465.22;5095128;28;20043;-53
2021/11/11 09:29:55;;;;;;;56.15;36.72;;;;;;;9.38;62.83;99469.66;5095050;28;20024;-53
2021/11/11 09:32:21;;;;;;;55.30;37.35;;;;;;;9.51;62.54;99482.16;5095031;28;20075;-52
2021/11/11 09:34:47;;;;;;;67.47;42.05;;;;;;;9.51;62.25;99495.28;5095003;28;20025;-53
2021/11/11 09:37:13;;;;;;;62.97;39.30;;;;;;;9.46;61.96;99503.66;5095218;28;20058;-53
2021/11/11 09:39:39;;;;;;;52.10;35.17;;;;;;;9.33;62.11;99498.16;5094917;28;20099;-53
2021/11/11 09:42:05;;;;;;;55.75;34.22;;;;;;;9.33;62.39;99490.28;5076518;28;20028;-53
2021/11/11 09:44:31;;;;;;;59.83;36.00;;;;;;;9.55;62.99;99483.44;5094805;28;20052;-52
2021/11/11 09:46:57;;;;;;;59.92;37.80;;;;;;;9.80;61.74;99487.53;5093389;28;20485;-52
2021/11/11 09:49:24;;;;;;;52.83;34.97;;;;;;;10.07;61.64;99487.16;5094711;28;20012;-52
2021/11/11 09:51:50;;;;;;;58.72;34.38;;;;;;;10.29;60.67;99486.31;5094655;28;20031;-53
2021/11/11 09:59:38;;;;;;;47.95;31.13;;;;;;;10.41;59.95;99485.91;5094804;28;20137;-53
2021/11/11 10:02:06;;;;;;;42.00;29.65;;;;;;;10.37;60.20;99485.44;5094366;28;20051;-53
2021/11/11 10:04:32;;;;;;;48.72;32.55;;;;;;;10.46;60.25;99480.91;5093074;28;20512;-53
2021/11/11 10:06:59;;;;;;;42.03;30.38;;;;;;;10.62;59.93;99483.38;5093005;28;20035;-52
2021/11/11 10:09:26;;;;;;;44.75;29.17;;;;;;;10.76;59.02;99476.50;5094375;28;20012;-53
2021/11/11 10:11:58;;;;;;;53.95;29.70;;;;;;;10.85;58.78;99485.09;5094253;28;20567;-52
2021/11/11 10:14:30;;;;;;;45.13;29.98;;;;;;;10.72;58.65;99470.78;5094310;28;20115;-53
2021/11/11 10:17:02;;;;;;;51.72;28.45;;;;;;;10.66;59.01;99466.25;5092779;28;20111;-53
2021/11/11 10:19:31;;;;;;;48.15;28.08;;;;;;;10.65;58.75;99467.28;5094200;28;20031;-52
2021/11/11 10:22:15;;;;;;;46.78;27.67;;;;;;;10.62;58.76;99469.44;5093727;28;20117;-52
2021/11/11 10:25:01;;;;;;;49.22;32.70;;;;;;;10.62;58.40;99478.13;5094097;28;20028;-52
2021/11/11 10:27:38;;;;;;;42.25;30.42;;;;;;;10.37;58.97;99477.56;5094069;28;20024;-52
2021/11/11 10:30:14;;;;;;;48.60;33.88;;;;;;;10.32;59.43;99483.38;5093987;28;20129;-53
2021/11/11 10:32:43;;;;;;;47.17;30.13;;;;;;;10.42;59.30;99485.72;5093907;28;20035;-53
2021/11/11 10:35:17;;;;;;;52.30;30.38;;;;;;;10.52;59.04;99469.69;5093570;28;20023;-53
2021/11/11 10:37:57;;;;;;;51.88;32.85;;;;;;;10.82;59.21;99465.25;5093807;28;20054;-52
2021/11/11 10:40:24;;;;;;;55.33;37.92;;;;;;;11.12;58.02;99468.66;5093751;28;20075;-52
2021/11/11 10:42:54;;;;;;;41.30;29.73;;;;;;;11.55;56.97;99460.84;5093546;28;20027;-53
2021/11/11 10:45:29;;;;;;;43.83;30.27;;;;;;;11.66;55.72;99449.00;5093622;28;20482;-53
2021/11/11 10:47:57;;;;;;;45.70;30.63;;;;;;;11.59;56.37;99451.59;5092336;28;20122;-53
2021/11/11 10:50:33;;;;;;;42.63;30.80;;;;;;;11.65;56.34;99449.19;5093554;28;20024;-53
2021/11/11 10:53:03;;;;;;;46.58;33.63;;;;;;;11.55;55.99;99454.75;5093520;28;20024;-53
2021/11/11 10:55:32;;;;;;;43.00;28.45;;;;;;;11.38;56.36;99441.84;5092109;28;20024;-53
2021/11/11 10:58:09;;;;;;;40.33;26.80;;;;;;;11.42;56.69;99437.03;5093384;28;20025;-52
2021/11/11 11:00:55;;;;;;;37.50;26.73;;;;;;;11.54;56.34;99446.06;5092034;28;20497;-53
2021/11/11 11:03:32;;;;;;;39.30;26.25;;;;;;;11.63;56.21;99441.50;5093246;28;20028;-52
2021/11/11 11:06:02;;;;;;;39.38;27.42;;;;;;;11.62;56.06;99431.19;5093259;28;20409;-53
2021/11/11 11:08:30;;;;;;;34.15;25.88;;;;;;;11.76;55.73;99430.28;5093223;28;20012;-52
2021/11/11 11:11:10;;;;;;;38.95;29.02;;;;;;;11.98;55.17;99434.53;5093106;28;20080;-53
2021/11/11 11:13:42;;;;;;;31.88;24.08;;;;;;;12.29;55.42;99435.97;5093133;28;20401;-53
2021/11/11 11:16:10;;;;;;;30.55;26.17;;;;;;;12.47;53.72;99430.19;5093071;28;20024;-53
2021/11/11 11:19:09;;;;;;;33.72;26.00;;;;;;;12.34;53.82;99422.25;5091618;28;20524;-53
2021/11/11 11:21:40;;;;;;;33.55;27.17;;;;;;;12.36;54.17;99420.22;5088341;28;20067;-53
2021/11/11 11:24:12;;;;;;;34.40;25.33;;;;;;;12.48;54.44;99418.66;5092948;28;20064;-52
2021/11/11 11:26:48;;;;;;;31.13;23.83;;;;;;;12.72;54.08;99421.84;5092854;28;20389;-53
2021/11/11 11:32:07;;;;;;;28.05;21.83;;;;;;;12.95;53.28;99409.13;5092774;28;20024;-54
2021/11/11 11:34:40;;;;;;;35.83;25.08;;;;;;;13.08;52.92;99415.47;5092777;28;20531;-53
2021/11/11 11:37:21;;;;;;;26.33;21.15;;;;;;;13.07;52.45;99419.91;5091373;28;20397;-53
2021/11/11 11:39:52;;;;;;;26.55;20.92;;;;;;;13.19;52.24;99406.97;5091351;28;20034;-53
2021/11/11 11:42:25;;;;;;;26.83;22.90;;;;;;;13.23;52.25;99410.84;5092496;28;20603;-53
2021/11/11 11:44:54;;;;;;;29.05;22.60;;;;;;;13.95;51.49;99392.66;5091148;28;20397;-53
2021/11/11 11:50:07;;;;;;;27.40;23.23;;;;;;;13.36;51.48;99392.47;5092766;28;20039;-53
2021/11/11 11:52:36;;;;;;;33.85;25.73;;;;;;;13.03;51.88;99384.44;5092455;28;20081;-54
2021/11/11 11:55:15;;;;;;;29.48;23.77;;;;;;;13.29;52.92;99388.16;5092377;28;20065;-53
2021/11/11 11:57:58;;;;;;;29.83;24.75;;;;;;;14.10;51.18;99385.31;5092391;28;20042;-53
2021/11/11 12:03:24;;;;;;;33.17;25.75;;;;;;;14.30;49.37;99372.06;5092217;28;20489;-50